Time;durP1;ratioP1;P1;durP2;ratioP2;P2;SDS_P1;SDS_P2;PMS_P1;PMS_P2;Temp;Humidity;BMP_temperature;BMP_pressure;BME280_temperature;BME280_humidity;BME280_pressure;Samples;Min_cycle;Max_cycle;Signal;HPM_P1;HPM_P2
2021/12/12 00:02:30;;;;;;;14.63;3.65;;;;;;;10.39;100.00;78633.72;1744668;80;21107;-67
2021/12/12 00:04:51;;;;;;;12.33;2.62;;;;;;;10.39;100.00;76589.11;1748651;80;21298;-67
2021/12/12 00:07:26;;;;;;;17.50;3.58;;;;;;;10.41;100.00;76081.52;1755655;80;21602;-67
2021/12/12 00:09:57;;;;;;;10.80;2.87;;;;;;;10.37;100.00;83407.03;1711688;80;21465;-67
2021/12/12 00:12:27;;;;;;;14.85;3.20;;;;;;;10.35;100.00;85451.94;1748167;80;21132;-66
2021/12/12 00:14:54;;;;;;;15.72;3.60;;;;;;;10.32;100.00;90233.45;1745557;80;21521;-67
2021/12/12 00:17:23;;;;;;;15.65;3.42;;;;;;;10.27;100.00;99984.20;1742953;80;21517;-67
2021/12/12 00:19:50;;;;;;;23.40;3.70;;;;;;;10.23;100.00;104266.97;1753379;80;21672;-66
2021/12/12 00:22:21;;;;;;;25.75;4.20;;;;;;;10.20;100.00;106837.25;1749982;80;21010;-66
2021/12/12 00:24:55;;;;;;;19.77;4.97;;;;;;;10.14;100.00;112670.87;1751917;80;21053;-66
2021/12/12 00:27:22;;;;;;;19.40;4.65;;;;;;;10.05;100.00;117301.95;1739871;80;21024;-68
2021/12/12 00:29:49;;;;;;;19.35;4.92;;;;;;;9.98;100.00;118322.27;1751585;80;21193;-68
2021/12/12 00:32:17;;;;;;;27.15;7.17;;;;;;;9.92;100.00;113661.91;1745622;80;20984;-67
2021/12/12 00:34:49;;;;;;;21.90;6.22;;;;;;;9.93;100.00;104386.03;1746264;80;21076;-68
2021/12/12 00:37:15;;;;;;;23.92;7.12;;;;;;;9.96;100.00;104048.30;1745963;80;21298;-67
2021/12/12 00:39:49;;;;;;;30.97;8.68;;;;;;;9.92;100.00;113316.84;1750154;80;20973;-68
2021/12/12 00:42:20;;;;;;;28.07;9.45;;;;;;;9.85;100.00;120190.84;1712265;80;21883;-67
2021/12/12 00:44:53;;;;;;;27.00;11.18;;;;;;;9.80;100.00;118457.59;1717540;80;21115;-65
2021/12/12 00:47:20;;;;;;;27.22;11.75;;;;;;;9.77;100.00;119484.97;1741806;80;21506;-66
2021/12/12 00:49:46;;;;;;;30.08;11.40;;;;;;;9.67;100.00;129988.37;1719839;80;21040;-67
2021/12/12 00:52:17;;;;;;;31.37;13.55;;;;;;;9.56;100.00;130310.23;1742754;80;21118;-67
2021/12/12 00:54:44;;;;;;;26.93;13.55;;;;;;;9.50;100.00;125119.52;1750144;80;21463;-66
2021/12/12 00:57:13;;;;;;;22.75;11.50;;;;;;;9.49;100.00;110486.03;1741107;80;20921;-66
2021/12/12 00:59:41;;;;;;;31.07;13.72;;;;;;;9.46;100.00;108592.42;1743549;80;21084;-66
2021/12/12 01:02:10;;;;;;;27.90;13.15;;;;;;;9.33;100.00;115955.58;1743653;80;20922;-67
2021/12/12 01:04:42;;;;;;;25.62;12.55;;;;;;;9.16;100.00;112830.79;1743028;80;21321;-69
2021/12/12 01:07:13;;;;;;;24.45;10.43;;;;;;;9.05;100.00;105601.92;1746617;80;21554;-67
2021/12/12 01:09:50;;;;;;;26.52;11.57;;;;;;;8.96;100.00;98909.84;1669245;84;21056;-69
2021/12/12 01:12:20;;;;;;;20.77;11.68;;;;;;;8.91;100.00;90700.36;1747887;80;21102;-65
2021/12/12 01:14:52;;;;;;;21.30;11.53;;;;;;;8.85;100.00;82341.59;1715067;81;21148;-65
2021/12/12 01:17:24;;;;;;;17.23;10.40;;;;;;;8.77;100.00;78078.16;1749827;81;21091;-65
2021/12/12 01:19:59;;;;;;;22.55;10.58;;;;;;;8.68;100.00;74669.92;1743990;80;21188;-65
2021/12/12 01:22:32;;;;;;;19.87;11.33;;;;;;;8.60;100.00;68723.70;1741914;80;21084;-66
2021/12/12 01:25:05;;;;;;;20.90;11.15;;;;;;;8.52;100.00;62054.82;1745097;80;21528;-65
2021/12/12 01:27:31;;;;;;;24.75;12.40;;;;;;;8.48;100.00;58754.11;1743528;80;21091;-65
2021/12/12 01:29:59;;;;;;;16.85;10.48;;;;;;;8.49;100.00;50123.93;1710030;80;21061;-64
2021/12/12 01:32:30;;;;;;;24.87;10.90;;;;;;;8.52;100.00;45411.50;1755696;80;21136;-65
2021/12/12 01:34:57;;;;;;;22.55;10.95;;;;;;;8.53;100.00;44234.14;1747994;80;21107;-65
2021/12/12 01:40:06;;;;;;;20.45;9.90;;;;;;;8.49;100.00;44231.30;1749575;80;21196;-64
2021/12/12 01:42:43;;;;;;;17.23;10.78;;;;;;;8.48;100.00;43053.23;1735282;80;21087;-66
2021/12/12 01:45:30;;;;;;;22.58;11.88;;;;;;;8.39;100.00;45232.54;1749642;80;21174;-63
2021/12/12 01:48:00;;;;;;;19.82;10.23;;;;;;;8.30;100.00;45562.00;1741160;80;21369;-66
2021/12/12 01:50:35;;;;;;;19.57;9.73;;;;;;;8.18;100.00;44375.34;1749327;80;21088;-67
2021/12/12 01:53:05;;;;;;;23.62;9.98;;;;;;;8.07;100.00;45038.96;1734138;80;21756;-67
2021/12/12 01:55:41;;;;;;;18.82;10.65;;;;;;;8.02;100.00;43018.74;1751826;80;21097;-68
2021/12/12 01:58:13;;;;;;;21.55;10.58;;;;;;;7.98;100.00;40495.93;1740101;80;21136;-66
2021/12/12 02:00:52;;;;;;;22.20;11.45;;;;;;;7.92;100.00;38310.18;1677686;84;21477;-67
2021/12/12 02:03:22;;;;;;;38.13;11.18;;;;;;;7.91;100.00;35793.97;1700244;82;21061;-66
2021/12/12 02:05:49;;;;;;;18.00;9.13;;;;;;;7.95;100.00;31273.17;1746233;80;21107;-67
2021/12/12 02:08:18;;;;;;;18.57;10.30;;;;;;;8.01;100.00;27260.59;1743294;80;21080;-66
2021/12/12 02:10:59;;;;;;;24.50;10.85;;;;;;;8.00;100.00;27092.83;1746130;80;21152;-67
2021/12/12 02:13:27;;;;;;;19.02;10.32;;;;;;;7.99;100.00;28095.54;1725088;80;20992;-66
2021/12/12 02:15:56;;;;;;;22.13;9.73;;;;;;;7.93;100.00;29263.32;1744468;79;21028;-66
2021/12/12 02:18:30;;;;;;;19.15;9.85;;;;;;;7.90;100.00;29429.25;1736020;80;21582;-65
2021/12/12 02:21:17;;;;;;;20.02;9.70;;;;;;;7.85;100.00;29761.37;1744694;80;21139;-66
2021/12/12 02:37:30;;;;;;;21.23;11.30;;;;;;;7.62;100.00;19561.40;1741414;80;22002;-66
2021/12/12 02:39:57;;;;;;;21.20;11.03;;;;;;;7.60;100.00;18060.66;1746562;80;21112;-67
2021/12/12 02:42:24;;;;;;;25.52;11.43;;;;;;;7.59;100.00;16560.66;1746296;80;21123;-66
2021/12/12 02:44:56;;;;;;;22.00;11.22;;;;;;;7.59;100.00;15727.66;1737656;80;21084;-66
2021/12/12 02:47:31;;;;;;;24.80;11.78;;;;;;;7.60;100.00;14728.85;1748803;80;21616;-66
2021/12/12 02:52:22;;;;;;;21.87;11.45;;;;;;;7.58;100.00;13230.13;1753794;80;21047;-66
2021/12/12 02:54:49;;;;;;;26.52;11.78;;;;;;;7.57;100.00;12730.78;1735044;80;22190;-66
2021/12/12 02:57:16;;;;;;;22.10;11.12;;;;;;;7.55;100.00;12064.75;1745297;80;21096;-66
2021/12/12 02:59:48;;;;;;;22.25;10.93;;;;;;;7.53;100.00;11066.16;1749112;80;21084;-66
2021/12/12 03:02:22;;;;;;;26.23;11.03;;;;;;;7.51;100.00;10566.95;1744458;79;21806;-66
2021/12/12 03:04:49;;;;;;;26.57;11.23;;;;;;;7.51;100.00;10068.07;1737688;80;21011;-66
2021/12/12 03:07:15;;;;;;;21.57;10.00;;;;;;;7.52;100.00;9403.41;1747814;80;21487;-66
2021/12/12 03:09:47;;;;;;;23.27;10.05;;;;;;;7.52;100.00;8406.32;1742740;80;21076;-66
2021/12/12 03:12:20;;;;;;;24.12;10.00;;;;;;;7.50;100.00;7907.48;1753866;80;21462;-66
2021/12/12 03:14:49;;;;;;;22.67;9.78;;;;;;;7.47;100.00;7740.77;1750923;80;21269;-65
2021/12/12 03:17:20;;;;;;;20.37;9.78;;;;;;;7.46;100.00;7242.37;1747277;80;21567;-66
2021/12/12 03:19:49;;;;;;;21.90;8.95;;;;;;;7.48;100.00;6578.38;1744392;80;21522;-65
2021/12/12 03:22:16;;;;;;;24.37;10.10;;;;;;;7.46;100.00;6246.03;1746761;79;21478;-65
2021/12/12 03:24:43;;;;;;;20.92;9.75;;;;;;;7.47;100.00;6080.08;1755177;79;21084;-65
2021/12/12 03:27:10;;;;;;;19.92;9.28;;;;;;;7.48;100.00;5748.21;1747571;80;21138;-65
2021/12/12 03:29:37;;;;;;;24.25;9.28;;;;;;;7.50;100.00;4918.55;1689915;83;21093;-65
2021/12/12 03:32:08;;;;;;;25.82;10.78;;;;;;;7.52;100.00;4089.05;1692764;83;21081;-67
2021/12/12 03:34:42;;;;;;;21.35;9.53;;;;;;;7.52;100.00;2927.68;1755857;80;20980;-65
2021/12/12 03:37:12;;;;;;;27.50;10.00;;;;;;;7.53;100.00;2596.05;1746838;80;21393;-66
2021/12/12 03:39:40;;;;;;;27.05;10.08;;;;;;;7.53;100.00;2098.49;1705646;82;21110;-65
2021/12/12 03:42:13;;;;;;;21.45;10.45;;;;;;;7.54;100.00;1601.10;1750331;80;21076;-65
2021/12/12 03:44:40;;;;;;;19.87;9.33;;;;;;;7.57;100.00;1435.56;1746451;80;21089;-65
2021/12/12 03:47:21;;;;;;;23.67;9.25;;;;;;;7.58;100.00;772.43;1751397;80;21080;-65
2021/12/12 03:49:47;;;;;;;27.60;9.45;;;;;;;7.57;100.00;606.57;1749270;80;21496;-67
2021/12/12 03:52:16;;;;;;;24.92;9.35;;;;;;;7.58;100.00;440.88;1753157;80;21156;-67
2021/12/12 03:54:43;;;;;;;17.98;7.85;;;;;;;7.60;100.00;109.49;1748513;80;21083;-66
2021/12/12 03:57:09;;;;;;;19.00;8.98;;;;;;;7.62;100.00;-221.91;1738090;80;21096;-66
2021/12/12 03:59:36;;;;;;;19.02;7.87;;;;;;;7.60;100.00;-387.72;1741558;80;21147;-66
2021/12/12 04:02:04;;;;;;;24.07;8.98;;;;;;;7.59;100.00;-222.05;1740814;80;21096;-66
2021/12/12 04:04:36;;;;;;;19.45;8.95;;;;;;;7.60;100.00;-56.27;1753578;80;21938;-66
2021/12/12 04:07:07;;;;;;;23.27;9.85;;;;;;;7.59;100.00;-222.08;1746850;80;21063;-66
2021/12/12 04:09:33;;;;;;;19.27;9.10;;;;;;;7.62;100.00;-719.12;1746512;80;21056;-67
2021/12/12 04:12:03;;;;;;;23.12;9.13;;;;;;;7.62;100.00;-1050.55;1751730;80;21088;-65
2021/12/12 04:14:30;;;;;;;19.40;9.63;;;;;;;7.61;100.00;-1050.57;1744333;80;20972;-65
2021/12/12 04:17:01;;;;;;;16.35;8.15;;;;;;;7.62;100.00;-1216.22;1746381;80;21103;-66
2021/12/12 04:19:27;;;;;;;23.92;8.55;;;;;;;7.64;100.00;-1381.82;1749239;80;21072;-65
2021/12/12 04:21:54;;;;;;;21.93;9.95;;;;;;;7.65;100.00;-1381.78;1741715;80;21101;-67
2021/12/12 04:24:29;;;;;;;24.82;10.00;;;;;;;7.66;100.00;-1547.43;1750926;80;21072;-64
2021/12/12 04:26:56;;;;;;;24.57;9.68;;;;;;;7.68;100.00;-1713.03;1744319;80;21095;-64
2021/12/12 04:29:37;;;;;;;25.95;10.70;;;;;;;7.68;100.00;-1713.03;1749927;80;21505;-65
2021/12/12 04:32:08;;;;;;;21.70;9.50;;;;;;;7.68;100.00;-1547.36;1744165;80;21076;-64
2021/12/12 04:34:38;;;;;;;44.15;13.18;;;;;;;7.67;100.00;-1381.68;1746489;80;21071;-64
2021/12/12 04:37:04;;;;;;;30.50;10.82;;;;;;;7.65;100.00;-1547.47;1743739;80;21573;-65
2021/12/12 04:39:37;;;;;;;26.52;9.55;;;;;;;7.64;100.00;-1381.82;1750807;80;21580;-64
2021/12/12 04:42:17;;;;;;;26.55;10.53;;;;;;;7.63;100.00;-1216.17;1751232;80;21854;-65
2021/12/12 04:44:46;;;;;;;24.15;10.88;;;;;;;7.64;100.00;-1216.15;1754450;80;21088;-64
2021/12/12 04:50:36;;;;;;;21.42;9.38;;;;;;;7.62;100.00;-1381.92;1749054;80;21037;-66
2021/12/12 04:53:25;;;;;;;22.40;9.68;;;;;;;7.63;100.00;-1547.56;1754000;79;21514;-66
2021/12/12 04:56:42;;;;;;;24.65;10.45;;;;;;;7.65;100.00;-1878.84;1745574;80;21316;-66
2021/12/12 04:59:17;;;;;;;20.30;9.80;;;;;;;7.67;100.00;-2044.45;1740137;80;21061;-64
2021/12/12 05:02:34;;;;;;;23.90;9.43;;;;;;;7.69;100.00;-1878.68;1746769;80;21056;-64
2021/12/12 05:05:18;;;;;;;22.17;9.85;;;;;;;7.69;100.00;-1547.32;1749363;80;21079;-66
2021/12/12 05:08:04;;;;;;;21.15;8.10;;;;;;;7.67;100.00;-884.53;1741239;80;21568;-66
2021/12/12 05:10:56;;;;;;;18.10;8.70;;;;;;;7.68;100.00;-55.71;1748730;80;21729;-66
2021/12/12 05:13:40;;;;;;;20.37;8.43;;;;;;;7.69;100.00;773.34;1740216;80;21104;-67
2021/12/12 05:16:16;;;;;;;23.75;10.10;;;;;;;7.69;100.00;2100.16;1746268;80;21064;-67
2021/12/12 05:18:49;;;;;;;28.75;9.15;;;;;;;7.71;100.00;3095.80;1672336;84;21144;-67
2021/12/12 05:21:24;;;;;;;23.85;8.63;;;;;;;7.73;100.00;3925.88;1700174;82;21110;-65
2021/12/12 05:23:52;;;;;;;23.90;8.83;;;;;;;7.74;100.00;4922.18;1697137;82;22381;-66
2021/12/12 05:26:33;;;;;;;22.25;9.33;;;;;;;7.76;100.00;7413.94;1700575;82;20986;-66
2021/12/12 05:29:10;;;;;;;26.00;10.68;;;;;;;7.73;100.00;9906.97;1694172;82;21129;-66
2021/12/12 05:31:37;;;;;;;22.25;9.80;;;;;;;7.71;100.00;14066.25;1714546;82;21041;-67
2021/12/12 05:34:03;;;;;;;19.48;9.48;;;;;;;7.71;100.00;16397.82;1712354;82;21430;-67
2021/12/12 05:36:32;;;;;;;27.10;11.40;;;;;;;7.71;100.00;18231.23;1683172;82;21605;-67
2021/12/12 05:39:00;;;;;;;26.57;9.78;;;;;;;7.70;100.00;20065.09;1704054;82;21574;-67
2021/12/12 05:41:27;;;;;;;28.98;10.50;;;;;;;7.69;100.00;23234.99;1703297;82;21099;-67
2021/12/12 05:43:55;;;;;;;21.57;10.23;;;;;;;7.69;100.00;27077.29;1713994;82;22155;-66
2021/12/12 05:46:23;;;;;;;23.73;10.32;;;;;;;7.68;100.00;30421.25;1743991;80;21088;-67
2021/12/12 05:48:50;;;;;;;22.00;10.25;;;;;;;7.69;100.00;32095.04;1745870;80;21837;-67
2021/12/12 05:51:18;;;;;;;19.95;9.48;;;;;;;7.68;100.00;33266.69;1755247;80;21064;-67
2021/12/12 05:53:44;;;;;;;25.25;10.93;;;;;;;7.68;100.00;35779.05;1746036;80;21059;-66
2021/12/12 05:56:11;;;;;;;23.10;11.40;;;;;;;7.66;100.00;41312.06;1748424;80;21017;-66
2021/12/12 05:58:38;;;;;;;27.42;12.53;;;;;;;7.65;100.00;42654.71;1743671;80;21085;-67
2021/12/12 06:01:09;;;;;;;24.55;11.93;;;;;;;7.64;100.00;40304.04;1716225;80;21896;-67
2021/12/12 06:03:40;;;;;;;24.27;11.43;;;;;;;7.65;100.00;38459.19;1745508;80;21504;-66
2021/12/12 06:06:11;;;;;;;28.87;12.23;;;;;;;7.64;100.00;39632.94;1743071;80;21095;-66
2021/12/12 06:08:40;;;;;;;21.42;10.95;;;;;;;7.61;100.00;43323.25;1745485;80;21033;-66
2021/12/12 06:11:06;;;;;;;24.45;11.50;;;;;;;7.59;100.00;43321.68;1745089;80;21048;-66
2021/12/12 06:13:36;;;;;;;30.25;12.45;;;;;;;7.58;100.00;42649.25;1748714;80;21931;-66
2021/12/12 06:16:04;;;;;;;25.30;12.47;;;;;;;7.57;100.00;41809.14;1732054;80;21073;-66
2021/12/12 06:18:32;;;;;;;28.45;12.20;;;;;;;7.57;100.00;39963.33;1703678;82;21055;-66
2021/12/12 06:20:59;;;;;;;30.08;11.93;;;;;;;7.57;100.00;37950.88;1711731;82;21106;-66
2021/12/12 06:23:26;;;;;;;23.52;11.48;;;;;;;7.58;100.00;38286.91;1706172;82;21012;-65
2021/12/12 06:25:53;;;;;;;22.00;10.05;;;;;;;7.57;100.00;40634.42;1717084;82;21123;-65
2021/12/12 06:28:28;;;;;;;26.17;10.85;;;;;;;7.55;100.00;42479.05;1712579;82;21087;-65
2021/12/12 06:30:54;;;;;;;26.90;12.33;;;;;;;7.55;100.00;41807.61;1710506;82;21114;-65
2021/12/12 06:33:21;;;;;;;26.07;12.20;;;;;;;7.57;100.00;42816.37;1713380;82;21550;-66
2021/12/12 06:35:48;;;;;;;23.15;12.82;;;;;;;7.57;100.00;41976.99;1710809;82;21107;-65
2021/12/12 06:38:16;;;;;;;24.00;12.28;;;;;;;7.57;100.00;41473.46;1706471;82;21556;-65
2021/12/12 06:40:44;;;;;;;21.95;11.18;;;;;;;7.56;100.00;42815.99;1707337;82;21536;-65
2021/12/12 06:43:13;;;;;;;25.35;13.10;;;;;;;7.54;100.00;46173.48;1716090;82;21138;-64
2021/12/12 06:45:39;;;;;;;23.92;11.80;;;;;;;7.52;100.00;46676.00;1713458;82;21066;-65
2021/12/12 06:48:08;;;;;;;24.72;11.60;;;;;;;7.52;100.00;47684.60;1707854;82;21134;-65
2021/12/12 06:50:37;;;;;;;24.65;12.03;;;;;;;7.52;100.00;45835.72;1705390;82;21864;-65
2021/12/12 06:53:04;;;;;;;23.47;10.70;;;;;;;7.51;100.00;45835.30;1707910;82;21123;-65
2021/12/12 06:55:31;;;;;;;25.32;11.93;;;;;;;7.52;100.00;46844.08;1681177;82;21161;-64
2021/12/12 06:57:58;;;;;;;29.67;12.20;;;;;;;7.53;100.00;45332.90;1702994;82;21052;-65
2021/12/12 07:00:25;;;;;;;24.77;11.18;;;;;;;7.53;100.00;42141.78;1679204;84;21037;-67
2021/12/12 07:02:53;;;;;;;19.87;11.10;;;;;;;7.53;100.00;40631.45;1700829;83;44167;-64
2021/12/12 07:05:24;;;;;;;25.55;10.75;;;;;;;7.53;100.00;40799.23;1668415;83;21048;-65
2021/12/12 07:07:50;;;;;;;18.77;9.20;;;;;;;7.51;100.00;42643.82;1697138;83;21375;-65
2021/12/12 07:10:19;;;;;;;22.22;10.48;;;;;;;7.50;100.00;44154.20;1699226;83;21111;-64
2021/12/12 07:12:48;;;;;;;22.15;10.40;;;;;;;7.50;100.00;45666.04;1701809;83;21035;-67
2021/12/12 07:15:16;;;;;;;21.93;9.58;;;;;;;7.48;100.00;47008.77;1670668;83;21308;-67
2021/12/12 07:17:43;;;;;;;23.22;10.38;;;;;;;7.45;100.00;49192.31;1698770;82;21059;-65
2021/12/12 07:20:11;;;;;;;21.37;10.18;;;;;;;7.43;100.00;51209.73;1653011;83;21070;-65
2021/12/12 07:22:39;;;;;;;19.07;9.63;;;;;;;7.44;100.00;51378.94;1714716;82;21027;-66
2021/12/12 07:25:07;;;;;;;20.23;9.20;;;;;;;7.48;100.00;50708.58;1706179;82;21130;-67
2021/12/12 07:27:34;;;;;;;21.87;9.15;;;;;;;7.48;100.00;48017.41;1706958;82;21125;-67
2021/12/12 07:30:01;;;;;;;24.77;8.93;;;;;;;7.44;100.00;48351.07;1707718;82;21058;-65
2021/12/12 07:32:28;;;;;;;19.10;9.60;;;;;;;7.40;100.00;47338.94;1687791;83;21138;-64
2021/12/12 07:34:55;;;;;;;20.45;9.75;;;;;;;7.42;100.00;45323.85;1710344;82;21528;-65
2021/12/12 07:37:21;;;;;;;22.50;9.60;;;;;;;7.43;100.00;44317.32;1707156;82;21052;-65
2021/12/12 07:39:48;;;;;;;19.15;9.68;;;;;;;7.41;100.00;45155.47;1709016;82;21253;-66
2021/12/12 07:42:16;;;;;;;21.02;8.73;;;;;;;7.38;100.00;49691.07;1708183;82;21039;-65
2021/12/12 07:44:44;;;;;;;19.30;9.40;;;;;;;7.37;100.00;54065.87;1716486;82;21566;-64
2021/12/12 07:47:13;;;;;;;18.25;8.75;;;;;;;7.36;100.00;59062.75;1711926;82;21640;-64
2021/12/12 07:49:44;;;;;;;23.47;9.40;;;;;;;7.35;100.00;61800.69;1713874;82;21533;-66
2021/12/12 07:52:15;;;;;;;19.05;8.15;;;;;;;7.34;100.00;71621.13;1711320;82;21141;-65
2021/12/12 07:54:41;;;;;;;17.15;8.28;;;;;;;7.32;100.00;74497.25;1707477;82;21018;-65
2021/12/12 07:57:08;;;;;;;19.75;8.30;;;;;;;7.33;100.00;73481.64;1712242;82;21070;-64
2021/12/12 07:59:37;;;;;;;15.45;7.78;;;;;;;7.35;100.00;72638.16;1695735;82;21540;-65
2021/12/12 08:02:05;;;;;;;23.42;8.18;;;;;;;7.36;100.00;73486.16;1711998;82;21078;-65
2021/12/12 08:04:32;;;;;;;17.40;8.10;;;;;;;7.37;100.00;75858.76;1686943;83;21527;-66
2021/12/12 08:07:00;;;;;;;14.35;8.10;;;;;;;7.39;100.00;79252.89;1708468;82;21094;-66
2021/12/12 08:09:27;;;;;;;20.75;8.45;;;;;;;7.38;100.00;85025.30;1713500;82;20994;-68
2021/12/12 08:11:55;;;;;;;19.07;8.88;;;;;;;7.39;100.00;85026.78;1706283;81;21050;-67
2021/12/12 08:14:25;;;;;;;17.07;9.28;;;;;;;7.40;100.00;91150.95;1679830;83;21398;-66
2021/12/12 08:16:52;;;;;;;21.55;9.03;;;;;;;7.39;100.00;94896.73;1705035;82;21841;-66
2021/12/12 08:19:23;;;;;;;19.70;9.05;;;;;;;7.42;100.00;95413.05;1702789;82;20964;-67
2021/12/12 08:21:54;;;;;;;18.60;8.70;;;;;;;7.43;100.00;97120.63;1702054;82;21515;-66
2021/12/12 08:24:21;;;;;;;23.30;9.40;;;;;;;7.45;100.00;96612.38;1711818;82;21031;-67
2021/12/12 08:26:48;;;;;;;24.67;10.08;;;;;;;7.45;100.00;97124.01;1746902;80;21696;-67
2021/12/12 08:29:15;;;;;;;28.05;9.55;;;;;;;7.44;100.00;104462.86;1713886;80;21197;-67
2021/12/12 08:31:42;;;;;;;26.77;10.58;;;;;;;7.43;100.00;106170.53;1749334;80;21041;-66
2021/12/12 08:34:10;;;;;;;20.90;9.13;;;;;;;7.42;100.00;111303.09;1738781;80;21080;-67
2021/12/12 08:36:40;;;;;;;22.75;9.35;;;;;;;7.40;100.00;114725.56;1749115;80;21020;-67
2021/12/12 08:39:07;;;;;;;21.93;9.40;;;;;;;7.39;100.00;126569.02;1747156;80;21577;-67
2021/12/12 08:41:35;;;;;;;24.57;9.45;;;;;;;7.37;100.00;128457.89;1751442;80;21148;-67
2021/12/12 08:44:04;;;;;;;26.60;9.60;;;;;;;7.37;100.00;121238.60;1741954;80;21064;-67
2021/12/12 08:46:31;;;;;;;20.02;9.58;;;;;;;7.36;100.00;115060.39;1751747;80;21091;-67
2021/12/12 08:48:59;;;;;;;28.47;10.58;;;;;;;7.35;100.00;112316.03;1754123;80;21123;-68
2021/12/12 08:51:32;;;;;;;26.10;10.32;;;;;;;7.33;100.00;112655.64;1749243;80;21146;-65
2021/12/12 08:54:03;;;;;;;20.95;9.18;;;;;;;7.30;100.00;111964.74;1707260;82;21572;-65
2021/12/12 08:56:42;;;;;;;27.52;9.38;;;;;;;7.29;100.00;116932.17;1721500;82;21084;-65
2021/12/12 08:59:01;;;;;;;22.50;9.35;;;;;;;7.29;100.00;123110.86;1644667;84;21065;-65
2021/12/12 09:01:28;;;;;;;22.07;9.58;;;;;;;7.30;100.00;119507.38;1742482;80;21053;-65
2021/12/12 09:04:00;;;;;;;23.38;9.33;;;;;;;7.33;100.00;112655.64;1751790;80;21000;-65
2021/12/12 09:06:30;;;;;;;25.55;9.73;;;;;;;7.34;100.00;115742.08;1749816;80;21514;-68
2021/12/12 09:09:15;;;;;;;26.70;9.50;;;;;;;7.31;100.00;124662.65;1741227;80;21025;-66
2021/12/12 09:12:02;;;;;;;18.30;8.50;;;;;;;7.29;100.00;121736.88;1746796;80;20982;-65
2021/12/12 09:15:05;;;;;;;24.10;8.83;;;;;;;7.28;100.00;124483.22;1742715;80;21048;-65
2021/12/12 09:17:49;;;;;;;21.48;8.53;;;;;;;7.26;100.00;122246.74;1706353;80;21743;-66
2021/12/12 09:20:34;;;;;;;18.90;8.53;;;;;;;7.25;100.00;121213.38;1753590;80;21195;-66
2021/12/12 09:23:21;;;;;;;22.37;9.23;;;;;;;7.23;100.00;122755.59;1751782;80;21066;-66
2021/12/12 09:25:58;;;;;;;20.48;8.20;;;;;;;7.23;100.00;126191.14;1754820;80;21091;-66
2021/12/12 09:28:43;;;;;;;23.07;8.85;;;;;;;7.22;100.00;124126.63;1752968;80;21044;-64
2021/12/12 09:31:18;;;;;;;21.73;8.78;;;;;;;7.21;100.00;123437.31;1726052;80;21060;-64
2021/12/12 09:33:52;;;;;;;21.07;9.20;;;;;;;7.21;100.00;117945.83;1754509;79;21139;-64
2021/12/12 09:36:25;;;;;;;23.67;8.88;;;;;;;7.21;100.00;111091.28;1749733;80;21056;-65
2021/12/12 09:39:00;;;;;;;16.52;8.50;;;;;;;7.19;100.00;108007.79;1747139;80;21060;-64
2021/12/12 09:42:12;;;;;;;18.35;9.73;;;;;;;7.19;100.00;105101.74;1754625;80;21036;-65
2021/12/12 09:45:11;;;;;;;23.52;9.35;;;;;;;7.19;100.00;103735.03;1752599;80;21032;-65
2021/12/12 09:51:15;;;;;;;22.00;8.95;;;;;;;7.20;100.00;100834.30;1759177;80;21047;-64
2021/12/12 09:54:21;;;;;;;19.07;9.03;;;;;;;7.22;100.00;98790.34;1754715;80;20964;-64
2021/12/12 09:56:59;;;;;;;38.80;9.43;;;;;;;7.24;100.00;98623.21;1757358;80;21043;-65
2021/12/12 10:00:05;;;;;;;23.42;9.28;;;;;;;7.24;100.00;100329.32;1749013;80;21108;-64
2021/12/12 10:03:13;;;;;;;24.18;9.15;;;;;;;7.24;100.00;96576.98;1749157;80;21465;-64
2021/12/12 10:06:12;;;;;;;18.45;8.95;;;;;;;7.22;100.00;92144.41;1744561;80;21099;-66
2021/12/12 10:09:05;;;;;;;21.73;9.18;;;;;;;7.22;100.00;90952.89;1756498;80;22957;-65
2021/12/12 10:11:40;;;;;;;21.17;8.75;;;;;;;7.24;100.00;83985.20;1753813;80;21119;-65
2021/12/12 10:14:32;;;;;;;24.95;9.65;;;;;;;7.25;100.00;81100.40;1752215;80;21068;-64
2021/12/12 10:17:28;;;;;;;19.87;8.70;;;;;;;7.25;100.00;81270.12;1743346;80;21857;-65
2021/12/12 10:20:04;;;;;;;20.55;9.15;;;;;;;7.21;100.00;84320.49;1752112;80;21564;-66
2021/12/12 10:22:54;;;;;;;;;;;;;;;7.19;100.00;86356.37;1756447;80;21509;-67
2021/12/12 10:26:04;;;;;;;28.45;9.53;;;;;;;7.18;100.00;85166.14;1744279;80;20206;-67
2021/12/12 10:28:45;;;;;;;21.10;8.85;;;;;;;7.21;100.00;82622.34;1751398;80;21087;-67
2021/12/12 10:31:42;;;;;;;22.98;9.05;;;;;;;7.23;100.00;81436.98;1714903;80;21079;-67
2021/12/12 10:34:24;;;;;;;19.90;9.58;;;;;;;7.26;100.00;85857.06;1746867;80;21111;-67
2021/12/12 10:37:11;;;;;;;22.95;9.60;;;;;;;7.22;100.00;91974.17;1751847;80;21032;-66
2021/12/12 10:39:44;;;;;;;18.57;9.23;;;;;;;7.20;100.00;91290.09;1750527;80;21482;-64
2021/12/12 10:42:16;;;;;;;19.57;9.25;;;;;;;7.18;100.00;93671.22;1681249;84;21150;-64
2021/12/12 10:45:06;;;;;;;17.17;8.60;;;;;;;7.17;100.00;94011.02;1712882;82;21038;-64
2021/12/12 10:47:58;;;;;;;21.10;8.80;;;;;;;7.16;100.00;96735.62;1712120;82;21486;-64
2021/12/12 10:50:59;;;;;;;25.52;10.80;;;;;;;7.16;100.00;99293.41;1708349;82;21586;-64
2021/12/12 10:53:43;;;;;;;25.35;9.35;;;;;;;7.17;100.00;97419.21;1711899;82;21540;-66
2021/12/12 10:56:48;;;;;;;20.08;9.23;;;;;;;7.18;100.00;95374.74;1710582;82;21751;-65
2021/12/12 10:59:26;;;;;;;24.23;10.63;;;;;;;7.19;100.00;90267.48;1749328;80;21132;-63
2021/12/12 11:01:58;;;;;;;21.68;9.70;;;;;;;7.19;100.00;94865.25;1746219;80;21134;-64
2021/12/12 11:04:47;;;;;;;21.95;9.78;;;;;;;7.21;100.00;96231.03;1743747;80;21016;-64
2021/12/12 11:07:22;;;;;;;18.37;9.35;;;;;;;7.21;100.00;98106.41;1751798;80;21048;-67
2021/12/12 11:10:07;;;;;;;23.18;10.10;;;;;;;7.20;100.00;105446.23;1756981;80;21084;-67
2021/12/12 11:12:43;;;;;;;22.15;10.13;;;;;;;7.16;100.00;114851.06;1745686;80;21104;-68
2021/12/12 11:15:24;;;;;;;22.17;10.23;;;;;;;7.16;100.00;115021.42;1745037;80;21064;-65
2021/12/12 11:18:08;;;;;;;19.37;9.68;;;;;;;7.15;100.00;113306.37;1739457;80;21635;-65
2021/12/12 11:20:42;;;;;;;19.77;9.50;;;;;;;7.14;100.00;109710.69;1747738;80;21123;-66
2021/12/12 11:23:23;;;;;;;25.40;10.58;;;;;;;7.10;100.00;110387.44;1735427;80;21131;-64
2021/12/12 11:26:00;;;;;;;21.33;10.38;;;;;;;7.08;100.00;109527.25;1748689;80;21554;-65
2021/12/12 11:28:36;;;;;;;24.52;11.83;;;;;;;7.05;100.00;107470.45;1742710;79;21063;-66
2021/12/12 11:31:13;;;;;;;21.82;11.20;;;;;;;7.03;100.00;110202.92;1740926;80;21662;-68
2021/12/12 11:33:42;;;;;;;24.82;11.08;;;;;;;7.00;100.00;111052.63;1747090;80;21044;-67
2021/12/12 11:36:13;;;;;;;22.50;10.68;;;;;;;6.97;100.00;107284.57;1753188;80;21044;-67
2021/12/12 11:39:02;;;;;;;25.52;11.25;;;;;;;6.98;100.00;102503.86;1750120;80;21451;-66
2021/12/12 11:41:41;;;;;;;41.85;23.10;;;;;;;6.96;100.00;101135.05;1739335;80;21048;-66
2021/12/12 11:44:21;;;;;;;51.68;27.65;;;;;;;6.96;100.00;99941.83;1748569;80;21537;-66
2021/12/12 11:47:06;;;;;;;27.90;13.45;;;;;;;6.97;100.00;99773.02;1738948;80;21111;-68
2021/12/12 11:49:56;;;;;;;26.23;12.50;;;;;;;6.98;100.00;99092.59;1747801;80;20960;-67
2021/12/12 11:52:50;;;;;;;29.80;11.55;;;;;;;7.00;100.00;99437.13;1741629;80;21197;-66
2021/12/12 11:55:40;;;;;;;23.85;11.45;;;;;;;6.99;100.00;100117.63;1723906;80;21386;-69
2021/12/12 11:59:02;;;;;;;24.85;11.35;;;;;;;7.00;100.00;99265.73;1743238;80;21045;-71
2021/12/12 12:01:43;;;;;;;26.52;10.82;;;;;;;7.01;100.00;95517.63;1748186;80;21088;-68
2021/12/12 12:04:43;;;;;;;24.65;10.30;;;;;;;7.02;100.00;100804.41;1739929;80;21072;-69
2021/12/12 12:07:44;;;;;;;22.67;10.43;;;;;;;7.00;100.00;102336.73;1744917;80;21373;-69
2021/12/12 12:10:36;;;;;;;24.25;10.90;;;;;;;6.99;100.00;107801.12;1745458;80;21041;-70
2021/12/12 12:13:39;;;;;;;21.55;9.65;;;;;;;6.97;100.00;110363.44;1714412;80;21520;-69
2021/12/12 12:16:24;;;;;;;24.05;10.10;;;;;;;6.97;100.00;111902.47;1745823;80;21075;-69
2021/12/12 12:19:33;;;;;;;27.27;11.22;;;;;;;6.96;100.00;111558.22;1686186;83;21066;-69